Time;durP1;ratioP1;P1;durP2;ratioP2;P2;SDS_P1;SDS_P2;PMS_P1;PMS_P2;Temp;Humidity;BMP_temperature;BMP_pressure;BME280_temperature;BME280_humidity;BME280_pressure;Samples;Min_cycle;Max_cycle;Signal;HPM_P1;HPM_P2
2023/05/23 00:00:53;;;;;;;9.00;4.63;;;15.00;99.90;;;;;;4903921;29;20147;-36
2023/05/23 00:03:21;;;;;;;9.15;4.85;;;15.00;99.90;;;;;;4912044;29;20135;-36
2023/05/23 00:05:48;;;;;;;11.52;4.95;;;15.00;99.90;;;;;;4905536;29;20067;-37
2023/05/23 00:08:13;;;;;;;11.27;4.60;;;15.00;99.90;;;;;;4906882;29;20142;-37
2023/05/23 00:10:39;;;;;;;13.75;6.07;;;15.00;99.90;;;;;;4907773;29;20144;-36
2023/05/23 00:13:08;;;;;;;15.07;6.32;;;14.90;99.90;;;;;;4905775;29;20138;-36
2023/05/23 00:15:36;;;;;;;13.55;6.57;;;14.80;99.90;;;;;;4891080;29;20071;-37
2023/05/23 00:18:02;;;;;;;14.38;6.18;;;14.70;99.90;;;;;;4907163;29;20064;-36
2023/05/23 00:20:29;;;;;;;11.90;6.70;;;14.50;99.90;;;;;;4907509;29;20047;-36
2023/05/23 00:22:57;;;;;;;16.70;6.57;;;14.40;99.90;;;;;;4906557;29;20076;-37
2023/05/23 00:25:23;;;;;;;16.13;6.18;;;14.40;99.90;;;;;;4902471;29;20063;-37
2023/05/23 00:27:50;;;;;;;16.30;7.45;;;14.30;99.90;;;;;;4907850;29;20056;-37
2023/05/23 00:30:16;;;;;;;16.33;6.75;;;14.30;99.90;;;;;;4905031;29;20455;-37
2023/05/23 00:32:41;;;;;;;18.52;6.13;;;14.20;99.90;;;;;;4893647;29;20059;-37
2023/05/23 00:35:07;;;;;;;11.60;5.82;;;14.20;99.90;;;;;;4908282;29;20063;-37
2023/05/23 00:37:33;;;;;;;13.63;6.35;;;14.10;99.90;;;;;;4908006;29;20157;-37
2023/05/23 00:39:59;;;;;;;15.00;6.40;;;14.10;99.90;;;;;;4911802;29;20569;-37
2023/05/23 00:42:25;;;;;;;17.98;7.40;;;14.10;99.90;;;;;;4915418;29;20052;-37
2023/05/23 00:44:50;;;;;;;22.52;8.10;;;14.10;99.90;;;;;;4913564;29;20074;-37
2023/05/23 00:47:16;;;;;;;16.92;7.38;;;14.00;99.90;;;;;;4912913;29;20051;-37
2023/05/23 00:49:43;;;;;;;21.40;8.38;;;14.00;99.90;;;;;;4911824;29;20063;-37
2023/05/23 00:52:10;;;;;;;21.02;8.13;;;14.00;99.90;;;;;;4910369;29;20060;-37
2023/05/23 00:54:36;;;;;;;20.60;7.65;;;14.00;99.90;;;;;;4911138;29;20101;-37
2023/05/23 00:57:02;;;;;;;16.98;7.45;;;14.00;99.90;;;;;;4908206;29;20503;-37
2023/05/23 00:59:28;;;;;;;17.05;7.65;;;13.90;99.90;;;;;;4905836;29;20067;-37
2023/05/23 01:01:56;;;;;;;17.63;7.40;;;13.90;99.90;;;;;;4914401;29;20482;-37
2023/05/23 01:04:25;;;;;;;15.85;6.75;;;13.90;99.90;;;;;;4908945;29;20055;-37
2023/05/23 01:06:53;;;;;;;18.58;8.23;;;13.90;99.90;;;;;;4910413;29;20052;-37
2023/05/23 01:09:19;;;;;;;17.20;7.18;;;13.90;99.90;;;;;;4905898;29;20060;-37
2023/05/23 01:12:16;;;;;;;16.95;7.60;;;13.80;99.90;;;;;;4908213;29;20048;-37
2023/05/23 01:15:09;;;;;;;16.13;7.07;;;13.80;99.90;;;;;;4902289;29;20055;-37
2023/05/23 01:17:53;;;;;;;21.63;7.38;;;13.80;99.90;;;;;;4895546;29;20108;-37
2023/05/23 01:20:23;;;;;;;15.38;7.00;;;13.80;99.90;;;;;;4904229;29;20048;-36
2023/05/23 01:22:52;;;;;;;19.23;7.90;;;13.90;99.90;;;;;;4906554;29;20064;-37
2023/05/23 01:25:57;;;;;;;22.13;7.45;;;13.80;99.90;;;;;;4903942;29;21289;-36
2023/05/23 01:28:31;;;;;;;21.98;6.35;;;13.80;99.90;;;;;;4908208;29;20056;-37
2023/05/23 01:30:59;;;;;;;13.13;6.15;;;13.90;99.90;;;;;;4913084;29;20151;-37
2023/05/23 01:33:27;;;;;;;17.42;6.78;;;13.90;99.90;;;;;;4910374;29;20056;-37
2023/05/23 01:35:55;;;;;;;16.25;6.32;;;13.90;99.90;;;;;;4908349;29;20494;-37
2023/05/23 01:38:20;;;;;;;15.98;6.03;;;14.00;99.90;;;;;;4908794;29;20064;-37
2023/05/23 01:40:46;;;;;;;15.15;5.80;;;13.90;99.90;;;;;;4907578;29;20063;-37
2023/05/23 01:43:11;;;;;;;13.13;6.20;;;13.90;99.90;;;;;;4908701;29;20075;-37
2023/05/23 01:45:38;;;;;;;16.90;6.82;;;13.90;99.90;;;;;;4908620;29;20048;-37
2023/05/23 01:48:05;;;;;;;16.80;6.22;;;13.90;99.90;;;;;;4912608;29;20052;-37
2023/05/23 01:50:31;;;;;;;14.25;7.20;;;13.90;99.90;;;;;;4907657;29;20087;-37
2023/05/23 01:52:58;;;;;;;17.25;5.88;;;13.90;99.90;;;;;;4901291;29;20064;-37
2023/05/23 01:55:25;;;;;;;14.60;5.45;;;13.90;99.90;;;;;;4903736;29;20585;-37
2023/05/23 01:57:54;;;;;;;13.65;5.78;;;13.90;99.90;;;;;;4902106;29;20141;-37
2023/05/23 02:00:20;;;;;;;11.38;6.18;;;13.90;99.90;;;;;;4906722;29;20441;-37
2023/05/23 02:02:46;;;;;;;15.63;6.20;;;13.80;99.90;;;;;;4907107;29;20075;-37
2023/05/23 02:05:12;;;;;;;17.55;6.15;;;13.80;99.90;;;;;;4907216;29;20502;-37
2023/05/23 02:07:37;;;;;;;17.30;5.78;;;13.80;99.90;;;;;;4905836;29;20065;-37
2023/05/23 02:10:06;;;;;;;14.68;5.80;;;13.80;99.90;;;;;;4906021;29;20048;-37
2023/05/23 02:12:32;;;;;;;12.52;5.65;;;13.80;99.90;;;;;;4902506;29;20847;-37
2023/05/23 02:14:57;;;;;;;14.32;6.10;;;13.70;99.90;;;;;;4909344;29;20072;-37
2023/05/23 02:17:23;;;;;;;13.77;4.78;;;13.80;99.90;;;;;;4903808;29;20722;-37
2023/05/23 02:19:49;;;;;;;8.57;4.43;;;13.70;99.90;;;;;;4906932;29;20249;-37
2023/05/23 02:22:15;;;;;;;10.43;4.78;;;13.70;99.90;;;;;;4905471;29;20462;-37
2023/05/23 02:24:41;;;;;;;11.07;4.65;;;13.80;99.90;;;;;;4907789;29;20062;-37
2023/05/23 02:27:07;;;;;;;13.18;5.13;;;13.70;99.90;;;;;;4887467;29;20056;-37
2023/05/23 02:29:33;;;;;;;13.70;5.68;;;13.80;99.90;;;;;;4908362;29;20058;-37
2023/05/23 02:31:58;;;;;;;14.10;5.47;;;13.70;99.90;;;;;;4906704;29;20055;-37
2023/05/23 02:34:24;;;;;;;16.55;5.50;;;13.70;99.90;;;;;;4908077;29;20146;-37
2023/05/23 02:36:50;;;;;;;11.43;4.90;;;13.60;99.90;;;;;;4908108;29;20060;-37
2023/05/23 02:39:16;;;;;;;14.30;5.40;;;13.60;99.90;;;;;;4906950;29;20056;-37
2023/05/23 02:41:42;;;;;;;11.25;4.30;;;13.50;99.90;;;;;;4906839;29;20422;-36
2023/05/23 02:44:07;;;;;;;11.48;4.50;;;13.50;99.90;;;;;;4908994;29;20054;-37
2023/05/23 02:46:33;;;;;;;12.70;5.10;;;13.50;99.90;;;;;;4904909;29;20060;-36
2023/05/23 02:48:59;;;;;;;12.38;4.70;;;13.60;99.90;;;;;;4902020;29;20055;-37
2023/05/23 02:51:25;;;;;;;14.73;4.65;;;13.50;99.90;;;;;;4907682;29;20420;-37
2023/05/23 02:53:50;;;;;;;12.00;4.88;;;13.60;99.90;;;;;;4907721;29;20064;-37
2023/05/23 02:56:16;;;;;;;15.23;5.03;;;13.60;99.90;;;;;;4906759;29;20518;-37
2023/05/23 02:58:42;;;;;;;17.00;5.50;;;13.60;99.90;;;;;;4889490;29;20094;-37
2023/05/23 03:01:07;;;;;;;10.93;4.22;;;13.50;99.90;;;;;;4903729;29;20188;-37
2023/05/23 03:03:33;;;;;;;13.48;4.60;;;13.50;99.90;;;;;;4905603;29;20059;-37
2023/05/23 03:06:03;;;;;;;14.90;3.67;;;13.50;99.90;;;;;;4906746;29;20063;-37
2023/05/23 03:08:29;;;;;;;14.07;4.25;;;13.50;99.90;;;;;;4910224;29;20059;-37
2023/05/23 03:10:55;;;;;;;13.88;4.22;;;13.50;99.90;;;;;;4906504;29;20442;-37
2023/05/23 03:13:21;;;;;;;10.82;4.43;;;13.50;99.90;;;;;;4905386;29;20064;-37
2023/05/23 03:15:46;;;;;;;13.27;4.53;;;13.50;99.90;;;;;;4903735;29;20139;-37
2023/05/23 03:18:12;;;;;;;12.27;4.57;;;13.50;99.90;;;;;;4900090;29;20063;-37
2023/05/23 03:20:38;;;;;;;13.90;4.55;;;13.50;99.90;;;;;;4904732;29;20060;-36
2023/05/23 03:23:03;;;;;;;11.80;3.80;;;13.50;99.90;;;;;;4903271;29;20059;-37
2023/05/23 03:25:29;;;;;;;11.65;3.72;;;13.60;99.90;;;;;;4904311;29;20059;-37
2023/05/23 03:27:55;;;;;;;12.35;4.30;;;13.50;99.90;;;;;;4901337;29;20517;-37
2023/05/23 03:30:20;;;;;;;9.90;3.55;;;13.50;99.90;;;;;;4903867;29;20389;-37
2023/05/23 03:32:46;;;;;;;8.98;3.50;;;13.50;99.90;;;;;;4905052;29;20076;-36
2023/05/23 03:35:12;;;;;;;11.18;4.03;;;13.50;99.90;;;;;;4902785;29;20092;-37
2023/05/23 03:37:38;;;;;;;12.25;4.40;;;13.40;99.90;;;;;;4903532;29;20050;-36
2023/05/23 03:40:06;;;;;;;14.85;4.35;;;13.40;99.90;;;;;;4907835;29;20055;-37
2023/05/23 03:42:31;;;;;;;12.77;4.03;;;13.40;99.90;;;;;;4904732;29;20052;-37
2023/05/23 03:44:57;;;;;;;13.75;4.63;;;13.40;99.90;;;;;;4907466;29;20092;-37
2023/05/23 03:47:23;;;;;;;14.07;4.07;;;13.30;99.90;;;;;;4905778;29;20117;-37
2023/05/23 03:49:49;;;;;;;14.35;4.40;;;13.20;99.90;;;;;;4909123;29;20072;-37
2023/05/23 03:52:14;;;;;;;11.60;3.92;;;13.20;99.90;;;;;;4907130;29;20139;-37
2023/05/23 03:54:40;;;;;;;11.10;3.50;;;13.20;99.90;;;;;;4904684;29;20139;-37
2023/05/23 03:57:06;;;;;;;11.00;3.67;;;13.20;99.90;;;;;;4905685;29;20056;-37
2023/05/23 03:59:33;;;;;;;11.02;4.03;;;13.10;99.90;;;;;;4903818;29;20468;-37
2023/05/23 04:01:59;;;;;;;12.48;3.83;;;13.10;99.90;;;;;;4908977;29;20059;-36
2023/05/23 04:04:26;;;;;;;10.32;3.63;;;13.10;99.90;;;;;;4907459;29;20138;-37
2023/05/23 04:06:52;;;;;;;13.30;4.28;;;13.00;99.90;;;;;;4902333;29;20470;-37
2023/05/23 04:09:18;;;;;;;15.43;3.83;;;13.00;99.90;;;;;;4903598;29;20063;-37
2023/05/23 04:11:44;;;;;;;18.65;4.70;;;13.00;99.90;;;;;;4905540;29;20083;-37
2023/05/23 04:14:10;;;;;;;15.00;4.22;;;13.00;99.90;;;;;;4903876;29;20146;-37
2023/05/23 04:16:36;;;;;;;14.90;3.50;;;13.00;99.90;;;;;;4904653;29;20056;-37
2023/05/23 04:19:03;;;;;;;14.25;3.60;;;13.00;99.90;;;;;;4902888;29;20112;-37
2023/05/23 04:21:29;;;;;;;14.77;3.85;;;13.00;99.90;;;;;;4899469;29;20393;-37
2023/05/23 04:23:55;;;;;;;12.82;3.55;;;13.00;99.90;;;;;;4907572;29;20052;-37
2023/05/23 04:26:21;;;;;;;11.20;4.00;;;12.90;99.90;;;;;;4907430;29;20052;-37
2023/05/23 04:28:47;;;;;;;7.55;2.92;;;12.90;99.90;;;;;;4904249;29;20126;-37
2023/05/23 04:31:13;;;;;;;16.08;4.50;;;12.90;99.90;;;;;;4907778;29;20094;-37
2023/05/23 04:33:40;;;;;;;11.55;3.97;;;12.90;99.90;;;;;;4909512;29;20063;-39
2023/05/23 04:36:08;;;;;;;9.50;3.33;;;12.80;99.90;;;;;;4909312;29;20056;-37
2023/05/23 04:38:37;;;;;;;11.43;3.47;;;12.80;99.90;;;;;;4907871;29;20142;-37
2023/05/23 04:41:06;;;;;;;9.07;3.10;;;12.80;99.90;;;;;;4902120;29;20064;-37
2023/05/23 04:43:36;;;;;;;10.18;3.20;;;12.70;99.90;;;;;;4900527;29;20489;-37
2023/05/23 04:46:02;;;;;;;11.52;3.17;;;12.70;99.90;;;;;;4904713;29;20490;-37
2023/05/23 04:48:28;;;;;;;14.38;3.95;;;12.70;99.90;;;;;;4904978;29;20073;-37
2023/05/23 04:50:55;;;;;;;12.02;4.60;;;12.70;99.90;;;;;;4902403;29;20066;-37
2023/05/23 04:53:23;;;;;;;12.43;3.80;;;12.70;99.90;;;;;;4899561;29;20098;-37
2023/05/23 04:55:49;;;;;;;7.45;2.78;;;12.70;99.90;;;;;;4903117;29;20731;-37
2023/05/23 04:58:15;;;;;;;10.65;2.85;;;12.70;99.90;;;;;;4905783;29;20051;-37
2023/05/23 05:00:41;;;;;;;12.68;3.15;;;12.70;99.90;;;;;;4906829;29;20059;-37
2023/05/23 05:03:08;;;;;;;10.15;2.75;;;12.60;99.90;;;;;;4899356;29;20062;-37
2023/05/23 05:05:34;;;;;;;8.48;2.67;;;12.60;99.90;;;;;;4889701;29;20060;-36
2023/05/23 05:08:00;;;;;;;12.65;3.10;;;12.60;99.90;;;;;;4904501;29;20074;-37
2023/05/23 05:10:25;;;;;;;11.52;3.15;;;12.60;99.90;;;;;;4902903;29;20056;-36
2023/05/23 05:12:51;;;;;;;12.18;2.70;;;12.50;99.90;;;;;;4910411;29;20150;-36
2023/05/23 05:15:18;;;;;;;11.38;2.72;;;12.50;99.90;;;;;;4909359;29;20044;-38
2023/05/23 05:17:44;;;;;;;11.32;3.00;;;12.50;99.90;;;;;;4885476;29;20056;-37
2023/05/23 05:20:10;;;;;;;8.65;1.85;;;12.50;99.90;;;;;;4907917;29;20068;-37
2023/05/23 05:22:39;;;;;;;8.75;2.90;;;12.60;99.90;;;;;;4906131;29;20102;-37
2023/05/23 05:25:06;;;;;;;8.18;2.35;;;12.60;99.90;;;;;;4905445;29;20108;-41
2023/05/23 05:27:32;;;;;;;12.68;2.70;;;12.60;99.90;;;;;;4911982;29;20055;-36
2023/05/23 05:30:03;;;;;;;5.90;2.38;;;12.60;99.90;;;;;;4904813;29;20496;-36
2023/05/23 05:32:30;;;;;;;7.68;2.88;;;12.60;99.90;;;;;;4899325;29;20549;-37
2023/05/23 05:34:55;;;;;;;11.60;2.95;;;12.50;99.90;;;;;;4902879;29;20071;-37
2023/05/23 05:37:21;;;;;;;10.05;2.78;;;12.50;99.90;;;;;;4900718;29;20637;-37
2023/05/23 05:39:47;;;;;;;11.55;2.67;;;12.40;99.90;;;;;;4904926;29;20430;-42
2023/05/23 05:42:12;;;;;;;20.42;3.03;;;12.40;99.90;;;;;;4901819;29;20528;-40
2023/05/23 05:44:38;;;;;;;8.95;2.55;;;12.40;99.90;;;;;;4907577;29;20128;-36
2023/05/23 05:47:04;;;;;;;8.13;2.78;;;12.30;99.90;;;;;;4899537;29;20052;-36
2023/05/23 05:49:30;;;;;;;8.70;1.90;;;12.30;99.90;;;;;;4898133;29;20159;-37
2023/05/23 05:51:56;;;;;;;8.15;2.28;;;12.30;99.90;;;;;;4893831;29;20154;-36
2023/05/23 05:54:21;;;;;;;9.85;3.13;;;12.30;99.90;;;;;;4906600;29;20507;-36
2023/05/23 05:56:47;;;;;;;9.63;3.40;;;12.30;99.90;;;;;;4899553;29;20052;-36
2023/05/23 05:59:13;;;;;;;9.70;2.50;;;12.30;99.90;;;;;;4878978;29;20557;-36
2023/05/23 06:01:39;;;;;;;17.17;3.90;;;12.30;99.90;;;;;;4894440;29;20052;-36
2023/05/23 06:04:05;;;;;;;12.52;3.30;;;12.20;99.90;;;;;;4903013;29;20443;-36
2023/05/23 06:06:31;;;;;;;15.93;3.38;;;12.20;99.90;;;;;;4906912;29;20051;-36
2023/05/23 06:08:57;;;;;;;7.32;3.00;;;12.10;99.90;;;;;;4905070;29;20048;-36
2023/05/23 06:11:23;;;;;;;8.57;2.90;;;12.10;99.90;;;;;;4907856;29;20518;-37
2023/05/23 06:13:48;;;;;;;10.00;2.55;;;12.10;99.90;;;;;;4908429;29;20060;-36
2023/05/23 06:16:14;;;;;;;7.38;2.10;;;12.10;99.90;;;;;;4905765;29;20063;-36
2023/05/23 06:18:40;;;;;;;8.77;3.33;;;12.20;99.90;;;;;;4907349;29;20486;-36
2023/05/23 06:21:05;;;;;;;10.80;2.50;;;12.20;99.90;;;;;;4914300;29;20247;-36
2023/05/23 06:23:31;;;;;;;10.40;3.47;;;12.20;99.90;;;;;;4915049;29;20094;-36
2023/05/23 06:25:58;;;;;;;8.10;2.33;;;12.30;99.90;;;;;;4910756;29;20058;-36
2023/05/23 06:28:24;;;;;;;7.30;2.38;;;12.30;99.90;;;;;;4910267;29;20060;-36
2023/05/23 06:30:49;;;;;;;9.95;2.42;;;12.40;99.90;;;;;;4909499;29;20521;-36
2023/05/23 06:33:15;;;;;;;9.63;2.65;;;12.40;99.90;;;;;;4902946;29;20067;-36
2023/05/23 06:35:41;;;;;;;8.80;1.90;;;12.40;99.90;;;;;;4902787;29;20056;-37
2023/05/23 06:38:07;;;;;;;8.57;2.30;;;12.40;99.90;;;;;;4907729;29;20067;-36
2023/05/23 06:40:33;;;;;;;7.40;2.20;;;12.50;99.90;;;;;;4913470;29;20056;-36
2023/05/23 06:42:59;;;;;;;8.02;2.25;;;12.50;99.90;;;;;;4909273;29;20109;-37
2023/05/23 06:45:25;;;;;;;6.88;1.73;;;12.60;99.90;;;;;;4910292;29;20056;-37
2023/05/23 06:47:50;;;;;;;8.98;2.42;;;12.50;99.90;;;;;;4909218;29;20156;-37
2023/05/23 06:50:18;;;;;;;6.53;2.20;;;12.50;99.90;;;;;;4915986;29;20059;-37
2023/05/23 06:52:45;;;;;;;11.43;3.20;;;12.50;99.90;;;;;;4910697;29;20126;-36
2023/05/23 06:55:16;;;;;;;12.25;2.38;;;12.50;99.90;;;;;;4905384;29;20534;-36
2023/05/23 06:57:42;;;;;;;9.00;1.88;;;12.50;99.90;;;;;;4908178;29;20113;-37
2023/05/23 07:00:09;;;;;;;6.78;1.40;;;12.40;99.90;;;;;;4905289;29;20060;-36
2023/05/23 07:02:34;;;;;;;10.82;1.83;;;12.40;99.90;;;;;;4912668;29;20108;-37
2023/05/23 07:05:00;;;;;;;9.75;1.30;;;12.40;99.90;;;;;;4902439;29;20051;-37
2023/05/23 07:07:26;;;;;;;7.45;1.80;;;12.40;99.90;;;;;;4908307;29;20296;-37
2023/05/23 07:09:51;;;;;;;5.70;1.20;;;12.50;99.90;;;;;;4906823;29;20056;-37
2023/05/23 07:12:17;;;;;;;6.93;1.30;;;12.60;99.90;;;;;;4908545;29;20462;-37
2023/05/23 07:14:43;;;;;;;9.40;1.75;;;12.80;99.90;;;;;;4904225;29;20132;-38
2023/05/23 07:17:08;;;;;;;11.40;1.50;;;13.00;99.90;;;;;;4902975;29;20053;-36
2023/05/23 07:19:34;;;;;;;9.35;1.58;;;13.20;99.90;;;;;;4909657;29;20055;-35
2023/05/23 07:22:00;;;;;;;7.72;1.67;;;13.40;99.90;;;;;;4902101;29;20068;-35
2023/05/23 07:24:26;;;;;;;12.18;1.77;;;13.70;99.90;;;;;;4901874;29;20067;-36
2023/05/23 07:26:51;;;;;;;11.35;1.75;;;13.90;99.90;;;;;;4906990;29;20059;-36
2023/05/23 07:29:17;;;;;;;9.48;2.08;;;14.10;99.90;;;;;;4903757;29;20052;-36
2023/05/23 07:31:42;;;;;;;11.50;2.40;;;14.20;99.90;;;;;;4905305;29;20130;-35
2023/05/23 07:34:08;;;;;;;10.88;2.08;;;14.20;99.90;;;;;;4900059;29;20072;-36
2023/05/23 07:36:36;;;;;;;7.75;1.10;;;14.00;99.90;;;;;;4905849;29;20052;-37
2023/05/23 07:39:02;;;;;;;9.40;1.67;;;13.90;99.90;;;;;;4903756;29;20071;-37
2023/05/23 07:41:28;;;;;;;9.88;1.85;;;13.70;99.90;;;;;;4896394;29;20044;-37
2023/05/23 07:43:54;;;;;;;12.43;1.63;;;13.60;99.90;;;;;;4906235;29;20055;-35
2023/05/23 07:46:21;;;;;;;12.35;1.90;;;13.50;99.90;;;;;;4903569;29;20050;-36
2023/05/23 07:48:47;;;;;;;11.95;1.80;;;13.40;99.90;;;;;;4909135;29;20048;-35
2023/05/23 07:51:13;;;;;;;11.25;1.38;;;13.40;99.90;;;;;;4909110;29;20051;-35
2023/05/23 07:53:38;;;;;;;10.57;1.38;;;13.40;99.90;;;;;;4910458;29;20529;-36
2023/05/23 07:56:06;;;;;;;9.95;1.85;;;13.40;99.90;;;;;;4908082;29;20052;-36
2023/05/23 07:58:31;;;;;;;9.02;1.10;;;13.40;99.90;;;;;;4912412;29;20490;-36
2023/05/23 08:00:58;;;;;;;13.05;1.88;;;13.50;99.90;;;;;;4907118;29;20132;-36
2023/05/23 08:03:24;;;;;;;18.08;2.75;;;13.50;99.90;;;;;;4904034;29;20479;-36
2023/05/23 08:05:50;;;;;;;6.80;1.33;;;13.50;99.90;;;;;;4908772;29;20071;-36
2023/05/23 08:08:15;;;;;;;7.15;1.08;;;13.70;99.90;;;;;;4907531;29;20044;-36
2023/05/23 08:10:41;;;;;;;10.48;2.20;;;13.70;99.90;;;;;;4907941;29;20513;-36
2023/05/23 08:13:09;;;;;;;8.98;1.23;;;13.80;99.90;;;;;;4906338;29;20545;-36
2023/05/23 08:15:35;;;;;;;13.15;2.05;;;13.70;99.90;;;;;;4905057;29;20055;-36
2023/05/23 08:18:00;;;;;;;6.65;1.30;;;13.70;99.90;;;;;;4908760;29;20505;-42
2023/05/23 08:20:30;;;;;;;14.70;1.65;;;13.70;99.90;;;;;;4906762;29;20107;-37
2023/05/23 08:23:00;;;;;;;9.30;1.42;;;13.80;99.90;;;;;;4905674;29;20056;-37
2023/05/23 08:25:32;;;;;;;9.60;1.23;;;13.90;99.90;;;;;;4904974;29;20048;-36
2023/05/23 08:27:59;;;;;;;13.43;1.63;;;14.00;99.90;;;;;;4905037;29;20055;-37
2023/05/23 08:30:25;;;;;;;12.10;1.63;;;14.30;99.90;;;;;;4906340;29;20064;-37
2023/05/23 08:32:55;;;;;;;10.77;1.60;;;14.60;99.90;;;;;;4906097;29;20147;-36
2023/05/23 08:35:21;;;;;;;5.47;1.23;;;14.80;99.90;;;;;;4904386;29;20048;-37
2023/05/23 08:37:47;;;;;;;10.95;1.80;;;15.00;99.90;;;;;;4906975;29;20072;-37
2023/05/23 08:40:20;;;;;;;10.98;2.15;;;15.20;99.90;;;;;;4909421;29;20515;-37
2023/05/23 08:42:47;;;;;;;9.98;1.95;;;15.30;99.90;;;;;;4906019;29;20052;-36
2023/05/23 08:45:13;;;;;;;7.85;1.80;;;15.40;99.90;;;;;;4908049;29;20052;-37
2023/05/23 08:47:43;;;;;;;13.60;1.90;;;15.40;99.90;;;;;;4908384;29;20909;-37
2023/05/23 08:50:14;;;;;;;9.23;1.83;;;15.40;99.90;;;;;;4905608;29;20084;-37
2023/05/23 08:52:53;;;;;;;8.65;1.27;;;15.60;99.90;;;;;;4908275;29;20060;-37
2023/05/23 08:55:19;;;;;;;6.68;1.63;;;15.80;99.90;;;;;;4913853;29;20131;-37
2023/05/23 08:57:45;;;;;;;8.90;1.58;;;16.00;99.90;;;;;;4907377;29;20063;-36
2023/05/23 09:00:13;;;;;;;9.18;1.50;;;16.10;99.90;;;;;;4911869;29;20128;-37
2023/05/23 09:02:42;;;;;;;4.22;1.17;;;16.20;99.90;;;;;;4911660;29;20055;-37
2023/05/23 09:05:08;;;;;;;18.85;3.35;;;16.30;99.90;;;;;;4909068;29;20052;-36
2023/05/23 09:07:35;;;;;;;12.80;2.40;;;16.20;99.90;;;;;;4909253;29;20060;-36
2023/05/23 09:10:02;;;;;;;16.85;2.33;;;15.90;99.90;;;;;;4912205;29;20052;-37
2023/05/23 09:12:28;;;;;;;8.93;1.60;;;15.60;99.90;;;;;;4907591;29;20044;-37
2023/05/23 09:14:54;;;;;;;9.15;1.80;;;15.30;99.90;;;;;;4910450;29;20052;-37
2023/05/23 09:17:20;;;;;;;10.23;1.55;;;15.20;99.90;;;;;;4907948;29;20044;-36
2023/05/23 09:19:46;;;;;;;9.30;1.60;;;15.40;99.90;;;;;;4912562;29;20048;-37
2023/05/23 09:22:12;;;;;;;8.82;1.40;;;15.60;99.90;;;;;;4908788;29;20055;-37
2023/05/23 09:24:38;;;;;;;8.73;1.20;;;15.90;99.90;;;;;;4914425;29;20056;-37
2023/05/23 09:27:07;;;;;;;8.43;1.42;;;16.00;99.90;;;;;;4895650;29;20569;-37
2023/05/23 09:29:40;;;;;;;13.65;1.65;;;16.00;99.90;;;;;;4909550;29;20063;-36
2023/05/23 09:32:16;;;;;;;;;;;16.10;99.90;;;;;;4911077;29;20459;-36
2023/05/23 09:35:05;;;;;;;8.18;1.80;;;16.30;99.90;;;;;;4909177;29;19929;-37
2023/05/23 09:37:35;;;;;;;8.88;2.03;;;16.40;99.90;;;;;;4901553;29;20507;-36
2023/05/23 09:40:08;;;;;;;11.80;1.20;;;16.30;99.90;;;;;;4909396;29;20052;-36
2023/05/23 09:42:35;;;;;;;8.50;1.67;;;16.00;99.90;;;;;;4904502;29;20606;-37
2023/05/23 09:45:01;;;;;;;11.15;1.42;;;15.80;99.90;;;;;;4904028;29;20708;-36
2023/05/23 09:47:27;;;;;;;10.93;2.17;;;15.70;99.90;;;;;;4906128;29;20048;-37
2023/05/23 09:49:53;;;;;;;8.63;1.80;;;15.70;99.90;;;;;;4909704;29;20063;-37
2023/05/23 09:52:19;;;;;;;16.25;1.80;;;15.90;99.90;;;;;;4908846;29;20044;-37
2023/05/23 09:54:45;;;;;;;7.00;1.60;;;16.10;99.90;;;;;;4908250;29;20110;-37
2023/05/23 09:57:13;;;;;;;12.80;1.85;;;16.20;99.90;;;;;;4910989;29;20497;-36
2023/05/23 09:59:41;;;;;;;9.30;1.45;;;16.30;99.90;;;;;;4916239;29;20054;-37
2023/05/23 10:02:10;;;;;;;8.70;1.45;;;16.40;99.90;;;;;;4914135;29;20536;-36
2023/05/23 10:04:37;;;;;;;7.43;1.30;;;16.50;99.90;;;;;;4904567;29;20053;-36
2023/05/23 10:07:16;;;;;;;9.18;1.55;;;16.60;99.90;;;;;;4910268;29;20067;-37
2023/05/23 10:09:47;;;;;;;6.88;1.73;;;16.70;99.90;;;;;;4909825;29;20051;-37
2023/05/23 10:12:42;;;;;;;10.52;1.63;;;16.70;99.90;;;;;;4912820;29;20530;-37
2023/05/23 10:15:09;;;;;;;10.00;1.73;;;16.90;99.90;;;;;;4907534;29;20137;-36
2023/05/23 10:18:08;;;;;;;8.90;1.45;;;17.10;99.90;;;;;;4913897;29;20067;-37
2023/05/23 10:20:38;;;;;;;8.77;1.38;;;17.10;99.90;;;;;;4913746;29;20059;-37
2023/05/23 10:23:04;;;;;;;5.40;1.02;;;16.90;99.90;;;;;;4902143;29;20557;-37
2023/05/23 10:25:30;;;;;;;7.60;1.48;;;16.80;99.90;;;;;;4908076;29;20067;-37
2023/05/23 10:27:57;;;;;;;9.13;1.77;;;16.90;99.90;;;;;;4906688;29;20135;-37
2023/05/23 10:30:27;;;;;;;13.93;1.42;;;16.80;99.90;;;;;;4899709;29;20080;-37
2023/05/23 10:32:57;;;;;;;9.18;1.48;;;16.60;99.90;;;;;;4904416;29;20068;-37
2023/05/23 10:35:49;;;;;;;7.13;1.42;;;16.50;99.90;;;;;;4913656;29;20051;-36
2023/05/23 10:38:35;;;;;;;9.00;1.10;;;16.50;99.90;;;;;;4905595;29;20566;-36
2023/05/23 10:41:11;;;;;;;10.82;1.20;;;16.70;99.90;;;;;;4906591;29;20562;-37
2023/05/23 10:43:43;;;;;;;8.75;1.83;;;16.80;99.90;;;;;;4916012;29;20461;-36
2023/05/23 10:46:11;;;;;;;;;;;16.90;99.90;;;;;;4911219;29;20107;-36
2023/05/23 10:48:42;;;;;;;5.20;0.95;;;17.20;99.90;;;;;;4915499;29;19973;-36
2023/05/23 10:51:09;;;;;;;8.85;2.10;;;17.40;99.90;;;;;;4907015;29;20066;-37
2023/05/23 10:53:40;;;;;;;7.35;1.17;;;17.50;99.90;;;;;;4913084;29;20402;-37
2023/05/23 10:56:08;;;;;;;7.57;1.23;;;17.70;99.90;;;;;;4914390;29;20102;-40
2023/05/23 10:58:35;;;;;;;8.30;1.42;;;17.60;99.90;;;;;;4910188;29;20060;-37
2023/05/23 11:01:05;;;;;;;7.60;1.42;;;17.60;99.90;;;;;;4911826;29;20051;-37
2023/05/23 11:03:34;;;;;;;7.78;1.30;;;17.50;99.90;;;;;;4910392;29;20055;-37
2023/05/23 11:06:01;;;;;;;10.27;1.45;;;17.60;99.90;;;;;;4910224;29;20130;-37
2023/05/23 11:08:28;;;;;;;8.60;1.70;;;17.60;99.90;;;;;;4914523;29;20056;-36
2023/05/23 11:11:04;;;;;;;11.27;2.25;;;17.60;99.90;;;;;;4911469;29;20526;-37
2023/05/23 11:13:52;;;;;;;14.40;2.75;;;17.50;99.90;;;;;;4906698;29;20060;-36
2023/05/23 11:16:31;;;;;;;7.68;1.58;;;17.30;99.90;;;;;;4903241;29;20066;-36
2023/05/23 11:19:15;;;;;;;6.45;1.30;;;17.20;99.90;;;;;;4911933;29;20349;-36
2023/05/23 11:21:43;;;;;;;6.00;1.17;;;17.10;99.90;;;;;;4903423;29;20408;-37
2023/05/23 11:24:09;;;;;;;9.18;1.55;;;17.00;99.90;;;;;;4912952;29;20067;-36
2023/05/23 11:26:35;;;;;;;5.32;1.42;;;17.10;99.90;;;;;;4901053;29;20049;-36
2023/05/23 11:29:03;;;;;;;7.43;1.10;;;17.20;99.90;;;;;;4908077;29;20111;-37
2023/05/23 11:31:29;;;;;;;9.20;1.17;;;17.30;99.90;;;;;;4908130;29;20051;-37
2023/05/23 11:33:55;;;;;;;12.30;1.50;;;17.30;99.90;;;;;;4907902;29;20060;-36
2023/05/23 11:36:21;;;;;;;10.73;1.45;;;17.40;99.90;;;;;;4902631;29;20103;-36
2023/05/23 11:38:51;;;;;;;8.25;1.45;;;17.40;99.90;;;;;;4902516;29;20052;-37
2023/05/23 11:41:17;;;;;;;9.40;2.10;;;17.30;99.90;;;;;;4910803;29;20139;-37
2023/05/23 11:43:53;;;;;;;9.45;1.90;;;17.20;99.90;;;;;;4906219;29;20539;-36
2023/05/23 11:46:19;;;;;;;10.35;2.20;;;17.20;99.90;;;;;;4907396;29;20139;-37
2023/05/23 11:48:45;;;;;;;13.55;1.88;;;17.40;99.90;;;;;;4907301;29;20167;-37
2023/05/23 11:51:11;;;;;;;9.13;1.98;;;17.40;99.90;;;;;;4910571;29;20052;-37
2023/05/23 11:53:37;;;;;;;7.03;1.20;;;17.30;99.90;;;;;;4913160;29;20059;-36
2023/05/23 11:56:03;;;;;;;7.53;0.95;;;17.40;99.90;;;;;;4910047;29;20134;-37
2023/05/23 11:58:40;;;;;;;6.57;1.30;;;17.50;99.90;;;;;;4909247;29;20063;-36
2023/05/23 12:01:11;;;;;;;8.05;1.80;;;17.80;99.90;;;;;;4904853;29;20168;-36
2023/05/23 12:03:48;;;;;;;9.40;1.73;;;17.90;99.90;;;;;;4905249;29;20051;-36
2023/05/23 12:06:15;;;;;;;4.70;1.23;;;17.80;99.90;;;;;;4908484;29;20048;-37
2023/05/23 12:08:41;;;;;;;8.15;1.63;;;17.80;99.90;;;;;;4908905;29;20051;-36
2023/05/23 12:11:07;;;;;;;4.40;0.82;;;17.90;99.90;;;;;;4909108;29;20052;-37
2023/05/23 12:13:32;;;;;;;5.60;1.15;;;18.00;99.90;;;;;;4908147;29;20052;-36
2023/05/23 12:15:59;;;;;;;5.85;0.80;;;18.10;99.90;;;;;;4904850;29;20139;-36
2023/05/23 12:18:30;;;;;;;5.35;1.08;;;18.20;99.90;;;;;;4902012;29;20139;-36
2023/05/23 12:21:04;;;;;;;7.28;1.20;;;18.30;99.90;;;;;;4908714;29;20056;-36
2023/05/23 12:23:30;;;;;;;5.80;0.82;;;18.40;99.90;;;;;;4901216;29;20219;-36
2023/05/23 12:25:56;;;;;;;7.32;1.20;;;18.30;99.90;;;;;;4906939;29;20051;-36
2023/05/23 12:28:46;;;;;;;4.30;0.95;;;18.20;99.90;;;;;;4907416;29;20210;-36
2023/05/23 12:31:15;;;;;;;7.55;1.33;;;17.90;99.90;;;;;;4913740;29;20497;-37
2023/05/23 12:33:44;;;;;;;3.80;0.65;;;17.60;99.90;;;;;;4913064;29;20064;-36
2023/05/23 12:36:14;;;;;;;7.50;1.02;;;17.40;99.90;;;;;;4912974;29;20072;-37
2023/05/23 12:38:44;;;;;;;5.22;0.90;;;17.20;99.90;;;;;;4908516;29;20078;-37
2023/05/23 12:41:16;;;;;;;5.05;0.88;;;17.00;99.90;;;;;;4908335;29;20418;-38
2023/05/23 12:43:52;;;;;;;5.57;1.38;;;16.80;99.90;;;;;;4908032;29;20055;-36